This is the latest recevied weather packets stored in our database for station/object IW1CBG-3. If no packets are shown the sender has not sent any weather packets the latest 10 day(s).
| Time | Temp. | Humidity | Pressure | Rain* | Wind** | Luminosity | Snow |
|---|---|---|---|---|---|---|---|
| 1788252978 | 23.33° C | 54% | 1028.1 hPa | 0 mm | - | - | - |
| 1788252378 | 22.78° C | 59% | 1028.4 hPa | 0 mm | - | - | - |
| 1788251777 | 22.78° C | 58% | 1028.1 hPa | 0 mm | - | - | - |
| 1788251178 | 21.11° C | 62% | 1028.7 hPa | 0 mm | - | - | - |
| 1788250576 | 20.56° C | 63% | 1028.5 hPa | 0 mm | - | - | - |
| 1788249978 | 20° C | 64% | 1029 hPa | 0 mm | - | - | - |
| 1788249377 | 20° C | 64% | 1028.8 hPa | 0 mm | - | - | - |
| 1788248777 | 18.89° C | 67% | 1029 hPa | 0 mm | - | - | - |
| 1788248177 | 18.33° C | 70% | 1029.1 hPa | 0 mm | - | - | - |
| 1788247576 | 17.78° C | 73% | 1029.5 hPa | 0 mm | - | - | - |
| 1788246975 | 16.67° C | 74% | 1029.8 hPa | 0 mm | - | - | - |
| 1788246377 | 15.56° C | 79% | 1030.3 hPa | 0 mm | - | - | - |
| 1788245776 | 15.56° C | 79% | 1030.3 hPa | 0 mm | - | - | - |
| 1788245176 | 15° C | 80% | 1030.3 hPa | 0 mm | - | - | - |
| 1788244576 | 14.44° C | 83% | 1030.4 hPa | 0 mm | - | - | - |
| 1788243976 | 14.44° C | 82% | 1030.4 hPa | 0 mm | - | - | - |
| 1788243376 | 13.89° C | 83% | 1030.5 hPa | 0 mm | - | - | - |
| 1788242777 | 13.33° C | 86% | 1030.6 hPa | 0 mm | - | - | - |
| 1788242177 | 12.78° C | 88% | 1030.8 hPa | 0 mm | - | - | - |
| 1788241577 | 12.78° C | 89% | 1030.8 hPa | 0 mm | - | - | - |
| 1788240977 | 12.78° C | 88% | 1030.7 hPa | 0 mm | - | - | - |
| 1788240376 | 12.78° C | 89% | 1030.7 hPa | 0 mm | - | - | - |
| 1788239777 | 12.78° C | 88% | 1030.7 hPa | 0 mm | - | - | - |
| 1788239178 | 12.78° C | 88% | 1030.5 hPa | 0 mm | - | - | - |
| 1788238577 | 12.78° C | 88% | 1030.4 hPa | 0 mm | - | - | - |
* Rain latest hour (hover to see other rain measurements)
** Current wind speed in m/s (hover to see current wind gust speed)